Terminal Aerodrome Forecast
Issued by NWS Twin Cities, MN

Home | Current Version | Previous Version | Graphics & Text | Print | Product List | Glossary On
Versions: 1 2 3 4 5 6 7 8 9 10 11 12 13 14 15 16 17 18 19 20 21 22 23 24 25 26 27
329
FTUS43 KMPX 221735
TAFMSP
TAF
KMSP 221735Z 2218/2324 34005KT P6SM OVC008
      TEMPO 2218/2221 SCT008 OVC020
     FM222100 31005KT 6SM BR BKN008
     FM230000 28006KT 4SM BR OVC005
     FM231200 VRB03KT P6SM OVC009
     FM231600 VRB03KT P6SM SCT010 BKN020=

USA.gov is the U.S. government's official web portal to all federal, state and local government web resources and services.